EHKD/DHR METAR and TAF weather

Enter ICAO airport designator
Station Type Date Time Source
EHKD METAR 2022/06/27 09:25 UTC NOAA

EHKD 270925Z AUTO 24005KT 210V280 9999 BKN100 OVC190 19/15 Q1015 BLU NOSIG


Station Type Date Time Source
EHKD Decoded METAR 2022/06/27 09:25 UTC NOAA

De Kooy, Netherlands (EHKD) 52-55N 004-47E 14M
Jun 27, 2022 - 05:25 AM EDT / 2022.06.27 0925 UTC
Wind: from the WSW (240 degrees) at 6 MPH (5 KT) (direction variable):0
Visibility: greater than 7 mile(s):0
Sky conditions: overcast
Temperature: 66 F (19 C)
Dew Point: 59 F (15 C)
Relative Humidity: 77%
Pressure (altimeter): 29.97 in. Hg (1015 hPa)
ob: EHKD 270925Z AUTO 24005KT 210V280 9999 BKN100 OVC190 19/15 Q1015 BLU NOSIG
cycle: 9

Station Type Date Time Source
EHKD TAF 2022/06/27 09:06 UTC NOAA

TAF TAF EHKD 270841Z 2709/2721 24005KT CAVOK
TEMPO 2711/2717 VRB15G25KT 4000 SHRA FEW012 SCT025CB BKN040 PROB30
TEMPO 2712/2716 VRB20G30KT 2000 TSRA SCT008 BKN020CB BKN025

Example: see airport list